createdAt,value
2018-12-05T00:00:23.967Z,3.70
2018-12-05T00:02:52.097Z,3.40
2018-12-05T00:05:20.284Z,4.22
2018-12-05T00:07:48.476Z,4.58
2018-12-05T00:10:16.661Z,4.58
2018-12-05T00:12:44.864Z,4.80
2018-12-05T00:15:13.039Z,4.10
2018-12-05T00:17:41.225Z,4.40
2018-12-05T00:20:09.408Z,3.90
2018-12-05T00:22:37.605Z,5.17
2018-12-05T00:25:05.781Z,5.10
2018-12-05T00:27:33.981Z,5.40
2018-12-05T00:30:02.181Z,6.05
2018-12-05T00:32:30.468Z,5.58
2018-12-05T00:34:58.643Z,5.17
2018-12-05T00:37:26.828Z,5.50
2018-12-05T00:39:55.012Z,5.53
2018-12-05T00:42:24.147Z,5.33
2018-12-05T00:44:52.308Z,5.37
2018-12-05T00:47:20.492Z,5.55
2018-12-05T00:49:48.672Z,5.80
2018-12-05T00:52:16.871Z,6.00
2018-12-05T00:54:45.978Z,6.22
2018-12-05T00:57:14.392Z,5.85
2018-12-05T00:59:42.668Z,6.33
2018-12-05T01:02:10.852Z,6.47
2018-12-05T01:04:39.032Z,5.60
2018-12-05T01:07:07.217Z,6.30
2018-12-05T01:09:37.376Z,5.78
2018-12-05T01:12:05.544Z,6.33
2018-12-05T01:14:33.723Z,6.15
2018-12-05T01:17:01.908Z,6.30
2018-12-05T01:19:30.100Z,6.00
2018-12-05T01:21:58.284Z,5.95
2018-12-05T01:24:26.544Z,6.70
2018-12-05T01:26:54.668Z,6.40
2018-12-05T01:29:22.872Z,6.20
2018-12-05T01:31:51.028Z,6.62
2018-12-05T01:34:19.223Z,6.30
2018-12-05T01:36:47.411Z,7.22
2018-12-05T01:39:15.604Z,7.12
2018-12-05T01:41:43.777Z,7.60
2018-12-05T01:44:11.972Z,7.12
2018-12-05T01:46:40.156Z,7.28
2018-12-05T01:49:08.347Z,7.20
2018-12-05T01:51:36.532Z,7.67
2018-12-05T01:54:04.752Z,7.72
2018-12-05T01:56:32.848Z,7.30
2018-12-05T01:59:00.987Z,7.65
2018-12-05T02:01:29.163Z,7.65
2018-12-05T02:03:57.381Z,7.47
2018-12-05T02:06:25.544Z,8.05
2018-12-05T02:08:53.740Z,8.35
2018-12-05T02:11:21.912Z,7.60
2018-12-05T02:13:50.136Z,7.60
2018-12-05T02:16:18.292Z,7.97
2018-12-05T02:18:46.576Z,7.67
2018-12-05T02:21:14.675Z,8.13
2018-12-05T02:23:42.872Z,7.80
2018-12-05T02:26:11.044Z,8.80
2018-12-05T02:28:39.242Z,7.25
2018-12-05T02:31:07.430Z,7.55
2018-12-05T02:33:35.624Z,7.80
2018-12-05T02:36:03.885Z,7.58
2018-12-05T02:38:32.083Z,7.60
2018-12-05T02:41:00.264Z,8.08
2018-12-05T02:43:28.444Z,7.65
2018-12-05T02:45:56.640Z,7.62
2018-12-05T02:48:24.923Z,8.15
2018-12-05T02:50:53.004Z,7.95
2018-12-05T02:53:21.186Z,8.58
2018-12-05T02:55:49.345Z,8.23
2018-12-05T02:58:17.478Z,7.50
2018-12-05T03:00:45.548Z,8.30
2018-12-05T03:03:13.730Z,8.23
2018-12-05T03:05:41.834Z,8.28
2018-12-05T03:08:10.000Z,7.37
2018-12-05T03:10:38.230Z,8.48
2018-12-05T03:13:06.505Z,7.97
2018-12-05T03:15:34.700Z,8.33
2018-12-05T03:18:02.886Z,8.68
2018-12-05T03:20:31.086Z,8.25
2018-12-05T03:22:59.358Z,8.65
2018-12-05T03:25:27.663Z,8.30
2018-12-05T03:27:55.943Z,7.85
2018-12-05T03:30:24.239Z,8.53
2018-12-05T03:32:52.521Z,8.00
2018-12-05T03:35:25.061Z,8.03
2018-12-05T03:37:53.193Z,8.23
2018-12-05T03:40:21.381Z,8.15
2018-12-05T03:42:49.560Z,7.87
2018-12-05T03:45:17.760Z,8.60
2018-12-05T03:47:45.940Z,8.73
2018-12-05T03:50:14.133Z,8.95
2018-12-05T03:52:42.309Z,8.95
2018-12-05T03:55:10.609Z,7.97
2018-12-05T03:57:38.794Z,9.30
2018-12-05T04:00:07.012Z,8.83
2018-12-05T04:02:35.261Z,8.23
2018-12-05T04:05:03.448Z,8.33
2018-12-05T04:07:31.650Z,8.55
2018-12-05T04:09:59.824Z,7.67
2018-12-05T04:12:28.023Z,7.58
2018-12-05T04:14:56.310Z,7.85
2018-12-05T04:17:24.496Z,7.80
2018-12-05T04:19:52.676Z,7.50
2018-12-05T04:22:20.981Z,7.40
2018-12-05T04:24:49.176Z,8.38
2018-12-05T04:27:17.340Z,7.80
2018-12-05T04:29:45.529Z,7.50
2018-12-05T04:32:13.740Z,7.85
2018-12-05T04:34:41.904Z,8.28
2018-12-05T04:37:10.198Z,7.40
2018-12-05T04:39:38.377Z,8.03
2018-12-05T04:42:06.577Z,7.53
2018-12-05T04:44:34.844Z,7.12
2018-12-05T04:47:03.041Z,7.58
2018-12-05T04:49:31.221Z,7.25
2018-12-05T04:51:59.420Z,7.58
2018-12-05T04:54:27.601Z,7.28
2018-12-05T04:56:55.792Z,8.35
2018-12-05T04:59:23.973Z,7.62
2018-12-05T05:01:52.189Z,7.87
2018-12-05T05:04:20.450Z,7.40
2018-12-05T05:06:48.696Z,8.00
2018-12-05T05:09:16.886Z,7.83
2018-12-05T05:11:45.121Z,8.40
2018-12-05T05:14:13.299Z,8.15
2018-12-05T05:16:41.510Z,8.43
2018-12-05T05:19:09.677Z,8.20
2018-12-05T05:21:37.892Z,9.43
2018-12-05T05:24:06.049Z,8.68
2018-12-05T05:26:34.330Z,9.33
2018-12-05T05:29:02.528Z,8.93
2018-12-05T05:31:30.704Z,9.13
2018-12-05T05:33:58.909Z,9.00
2018-12-05T05:36:27.096Z,8.68
2018-12-05T05:38:55.395Z,9.15
2018-12-05T05:41:23.563Z,9.80
2018-12-05T05:43:51.867Z,8.98
2018-12-05T05:46:20.140Z,9.33
2018-12-05T05:48:48.332Z,9.00
2018-12-05T05:51:16.519Z,8.75
2018-12-05T05:53:44.812Z,9.30
2018-12-05T05:56:12.993Z,8.38
2018-12-05T05:58:41.192Z,8.05
2018-12-05T06:01:09.415Z,8.40
2018-12-05T06:03:37.631Z,7.80
2018-12-05T06:06:05.753Z,8.13
2018-12-05T06:08:33.926Z,8.25
2018-12-05T06:11:02.249Z,8.63
2018-12-05T06:13:30.414Z,8.68
2018-12-05T06:15:58.525Z,7.80
2018-12-05T06:18:26.745Z,8.15
2018-12-05T06:20:54.970Z,7.78
2018-12-05T06:23:23.161Z,7.65
2018-12-05T06:25:51.340Z,8.38
2018-12-05T06:28:19.633Z,7.83
2018-12-05T06:30:47.838Z,7.87
2018-12-05T06:33:16.004Z,7.42
2018-12-05T06:35:44.193Z,7.70
2018-12-05T06:38:12.381Z,7.47
2018-12-05T06:40:40.568Z,7.42
2018-12-05T06:43:08.862Z,7.80
2018-12-05T06:45:37.041Z,7.70
2018-12-05T06:48:05.236Z,8.38
2018-12-05T06:50:33.413Z,7.85
2018-12-05T06:53:01.721Z,7.70
2018-12-05T06:55:29.888Z,7.60
2018-12-05T06:57:58.015Z,7.17
2018-12-05T07:00:26.164Z,7.17
2018-12-05T07:02:54.353Z,7.05
2018-12-05T07:05:23.061Z,7.50
2018-12-05T07:07:51.237Z,7.35
2018-12-05T07:10:19.401Z,6.90
2018-12-05T07:12:47.609Z,7.17
2018-12-05T07:15:15.692Z,8.05
2018-12-05T07:17:43.842Z,7.30
2018-12-05T07:20:11.944Z,7.20
2018-12-05T07:22:40.116Z,7.20
2018-12-05T07:25:08.312Z,7.28
2018-12-05T07:27:36.505Z,7.87
2018-12-05T07:30:04.732Z,7.83
2018-12-05T07:32:32.868Z,7.10
2018-12-05T07:35:01.064Z,6.65
2018-12-05T07:37:29.233Z,6.90
2018-12-05T07:39:57.330Z,7.10
2018-12-05T07:42:25.508Z,6.97
2018-12-05T07:44:53.604Z,6.47
2018-12-05T07:47:21.786Z,7.85
2018-12-05T07:49:49.983Z,6.83
2018-12-05T07:52:19.176Z,7.47
2018-12-05T07:54:48.568Z,6.87
2018-12-05T07:57:16.636Z,6.55
2018-12-05T07:59:44.720Z,7.28
2018-12-05T08:02:13.186Z,6.85
2018-12-05T08:04:41.352Z,7.47
2018-12-05T08:07:09.533Z,7.47
2018-12-05T08:09:37.754Z,17.62
2018-12-05T08:12:05.949Z,27.40
2018-12-05T08:14:34.129Z,15.03
2018-12-05T08:17:02.311Z,9.20
2018-12-05T08:19:30.493Z,9.55
2018-12-05T08:21:58.700Z,10.55
2018-12-05T08:24:26.869Z,10.05
2018-12-05T08:26:55.069Z,8.98
2018-12-05T08:29:23.346Z,7.15
2018-12-05T08:31:51.540Z,8.33
2018-12-05T08:34:19.712Z,7.37
2018-12-05T08:36:47.931Z,7.20
2018-12-05T08:39:16.089Z,7.08
2018-12-05T08:41:44.296Z,7.45
2018-12-05T08:44:12.472Z,7.90
2018-12-05T08:46:40.668Z,7.05
2018-12-05T08:49:08.840Z,6.87
2018-12-05T08:51:37.032Z,6.92
2018-12-05T08:54:05.393Z,7.17
2018-12-05T08:56:33.608Z,7.53
2018-12-05T08:59:01.788Z,8.10
2018-12-05T09:01:29.989Z,6.90
2018-12-05T09:03:58.084Z,8.50
2018-12-05T09:06:26.260Z,8.28
2018-12-05T09:08:54.442Z,7.35
2018-12-05T09:11:22.612Z,8.03
2018-12-05T09:13:50.805Z,7.35
2018-12-05T09:16:19.108Z,7.92
2018-12-05T09:18:47.373Z,7.67
2018-12-05T09:21:15.550Z,7.53
2018-12-05T09:23:43.740Z,7.40
2018-12-05T09:26:11.960Z,7.70
2018-12-05T09:28:40.115Z,8.43
2018-12-05T09:31:08.288Z,8.23
2018-12-05T09:33:36.489Z,7.97
2018-12-05T09:36:04.667Z,7.78
2018-12-05T09:38:32.756Z,7.05
2018-12-05T09:41:00.941Z,8.00
2018-12-05T09:43:29.509Z,7.10
2018-12-05T09:45:57.616Z,7.22
2018-12-05T09:48:25.716Z,7.87
2018-12-05T09:50:53.916Z,7.28
2018-12-05T09:53:22.119Z,7.37
2018-12-05T09:55:50.399Z,7.45
2018-12-05T09:58:18.589Z,7.50
2018-12-05T10:00:46.885Z,7.37
2018-12-05T10:03:15.068Z,7.25
2018-12-05T10:05:43.249Z,7.25
2018-12-05T10:08:11.440Z,6.97
2018-12-05T10:10:39.633Z,7.45
2018-12-05T10:13:07.833Z,7.58
2018-12-05T10:15:35.938Z,7.37
2018-12-05T10:18:04.085Z,8.65
2018-12-05T10:20:32.277Z,7.83
2018-12-05T10:23:00.460Z,6.97
2018-12-05T10:25:28.748Z,7.60
2018-12-05T10:27:56.864Z,7.78
2018-12-05T10:30:25.121Z,8.28
2018-12-05T10:32:53.305Z,8.00
2018-12-05T10:35:21.497Z,7.37
2018-12-05T10:37:49.672Z,7.22
2018-12-05T10:40:17.869Z,7.47
2018-12-05T10:42:46.054Z,7.10
2018-12-05T10:45:14.344Z,7.25
2018-12-05T10:47:42.532Z,7.47
2018-12-05T10:50:10.725Z,7.42
2018-12-05T10:52:38.907Z,8.13
2018-12-05T10:55:07.100Z,6.97
2018-12-05T10:57:35.270Z,7.87
2018-12-05T11:00:04.265Z,7.42
2018-12-05T11:02:38.085Z,7.83
2018-12-05T11:05:11.856Z,7.08
2018-12-05T11:07:45.611Z,7.40
2018-12-05T11:10:19.111Z,8.10
2018-12-05T11:12:52.729Z,6.97
2018-12-05T11:15:26.252Z,7.25
2018-12-05T11:17:59.865Z,7.42
2018-12-05T11:20:33.408Z,7.95
2018-12-05T11:23:07.072Z,7.90
2018-12-05T11:25:35.255Z,7.00
2018-12-05T11:28:03.332Z,7.35
2018-12-05T11:30:31.553Z,7.28
2018-12-05T11:32:59.737Z,8.70
2018-12-05T11:35:27.924Z,7.67
2018-12-05T11:37:56.104Z,8.33
2018-12-05T11:40:24.196Z,7.72
2018-12-05T11:42:52.383Z,11.48
2018-12-05T11:45:20.577Z,12.50
2018-12-05T11:47:48.908Z,8.33
2018-12-05T11:50:17.048Z,8.08
2018-12-05T11:52:45.228Z,8.38
2018-12-05T11:55:13.327Z,7.75
2018-12-05T11:57:41.505Z,7.90
2018-12-05T12:00:09.680Z,6.65
2018-12-05T12:02:37.778Z,7.95
2018-12-05T12:05:05.849Z,8.05
2018-12-05T12:07:33.953Z,7.37
2018-12-05T12:10:02.119Z,8.50
2018-12-05T12:12:35.652Z,7.45
2018-12-05T12:15:04.012Z,7.33
2018-12-05T12:17:32.127Z,7.78
2018-12-05T12:20:00.237Z,8.10
2018-12-05T12:22:28.392Z,7.95
2018-12-05T12:24:56.579Z,8.05
2018-12-05T12:27:24.766Z,7.55
2018-12-05T12:29:52.943Z,7.90
2018-12-05T12:32:21.032Z,7.40
2018-12-05T12:34:49.279Z,7.37
2018-12-05T12:37:17.416Z,7.90
2018-12-05T12:39:45.596Z,8.63
2018-12-05T12:42:13.684Z,8.45
2018-12-05T12:44:41.863Z,8.10
2018-12-05T12:47:10.052Z,7.30
2018-12-05T12:49:38.145Z,9.08
2018-12-05T12:52:06.546Z,11.55
2018-12-05T12:54:34.629Z,8.53
2018-12-05T12:57:02.813Z,7.87
2018-12-05T12:59:30.987Z,8.45
2018-12-05T13:01:59.169Z,8.15
2018-12-05T13:04:27.265Z,8.00
2018-12-05T13:06:55.444Z,7.62
2018-12-05T13:09:23.643Z,7.70
2018-12-05T13:11:51.996Z,7.85
2018-12-05T13:14:20.121Z,8.05
2018-12-05T13:16:48.296Z,8.33
2018-12-05T13:19:16.493Z,8.05
2018-12-05T13:21:44.692Z,7.67
2018-12-05T13:24:12.896Z,8.23
2018-12-05T13:26:41.060Z,8.15
2018-12-05T13:29:09.245Z,8.00
2018-12-05T13:31:37.432Z,7.87
2018-12-05T13:34:05.613Z,8.05
2018-12-05T13:36:33.793Z,7.42
2018-12-05T13:39:01.883Z,7.95
2018-12-05T13:41:30.056Z,7.53
2018-12-05T13:43:58.167Z,7.53
2018-12-05T13:46:29.846Z,7.97
2018-12-05T13:48:56.473Z,8.75
2018-12-05T13:51:24.655Z,7.85
2018-12-05T13:53:52.845Z,8.05
2018-12-05T13:56:21.024Z,8.83
2018-12-05T13:58:49.113Z,8.08
2018-12-05T14:01:17.301Z,8.83
2018-12-05T14:03:45.393Z,7.65
2018-12-05T14:06:13.568Z,7.62
2018-12-05T14:08:41.677Z,8.25
2018-12-05T14:11:09.868Z,8.68
2018-12-05T14:13:38.085Z,8.30
2018-12-05T14:16:06.264Z,7.65
2018-12-05T14:18:34.532Z,7.78
2018-12-05T14:21:02.737Z,7.15
2018-12-05T14:23:30.906Z,8.35
2018-12-05T14:25:59.092Z,7.35
2018-12-05T14:28:27.276Z,8.70
2018-12-05T14:30:55.468Z,8.50
2018-12-05T14:33:24.580Z,7.40
2018-12-05T14:35:52.872Z,8.03
2018-12-05T14:38:21.163Z,7.30
2018-12-05T14:40:49.355Z,7.85
2018-12-05T14:43:17.635Z,7.92
2018-12-05T14:45:45.938Z,7.97
2018-12-05T14:48:14.109Z,8.20
2018-12-05T14:50:42.407Z,7.55
2018-12-05T14:53:10.692Z,11.40
2018-12-05T14:55:38.893Z,25.12
2018-12-05T14:58:07.065Z,16.37
2018-12-05T15:00:35.171Z,9.85
2018-12-05T15:03:04.364Z,8.35
2018-12-05T15:05:32.656Z,8.63
2018-12-05T15:08:00.756Z,8.35
2018-12-05T15:10:28.936Z,8.20
2018-12-05T15:12:57.109Z,8.15
2018-12-05T15:15:25.297Z,7.25
2018-12-05T15:17:53.472Z,7.92
2018-12-05T15:20:21.674Z,7.25
2018-12-05T15:22:49.956Z,7.70
2018-12-05T15:25:18.149Z,7.55
2018-12-05T15:27:46.324Z,7.50
2018-12-05T15:30:14.529Z,7.87
2018-12-05T15:32:42.712Z,8.05
2018-12-05T15:35:10.903Z,8.28
2018-12-05T15:37:39.089Z,8.08
2018-12-05T15:40:07.284Z,8.98
2018-12-05T15:42:35.797Z,8.80
2018-12-05T15:45:05.132Z,8.65
2018-12-05T15:47:33.364Z,8.50
2018-12-05T15:50:01.547Z,8.70
2018-12-05T15:52:30.675Z,9.13
2018-12-05T15:54:58.968Z,8.70
2018-12-05T15:57:27.137Z,8.73
2018-12-05T15:59:55.332Z,8.35
2018-12-05T16:02:23.517Z,8.60
2018-12-05T16:04:51.796Z,8.43
2018-12-05T16:07:19.989Z,9.08
2018-12-05T16:09:48.197Z,8.78
2018-12-05T16:12:17.386Z,9.95
2018-12-05T16:14:45.592Z,20.10
2018-12-05T16:17:13.776Z,32.90
2018-12-05T16:19:41.949Z,34.88
2018-12-05T16:22:10.136Z,18.90
2018-12-05T16:24:38.322Z,13.28
2018-12-05T16:27:06.749Z,10.32
2018-12-05T16:29:34.897Z,9.00
2018-12-05T16:32:03.093Z,9.78
2018-12-05T16:34:31.264Z,9.83
2018-12-05T16:36:59.510Z,10.40
2018-12-05T16:39:27.751Z,10.35
2018-12-05T16:41:56.045Z,10.72
2018-12-05T16:44:24.225Z,10.48
2018-12-05T16:46:52.412Z,10.25
2018-12-05T16:49:20.601Z,9.90
2018-12-05T16:51:48.903Z,11.28
2018-12-05T16:54:17.357Z,10.43
2018-12-05T16:56:45.576Z,9.60
2018-12-05T16:59:13.865Z,10.00
2018-12-05T17:01:42.050Z,10.13
2018-12-05T17:04:10.341Z,10.03
2018-12-05T17:06:38.553Z,9.70
2018-12-05T17:09:07.492Z,13.15
2018-12-05T17:11:35.687Z,11.57
2018-12-05T17:14:03.879Z,11.18
2018-12-05T17:16:32.062Z,10.80
2018-12-05T17:19:00.248Z,10.63
2018-12-05T17:21:28.432Z,10.40
2018-12-05T17:23:56.624Z,9.25
2018-12-05T17:26:24.808Z,9.90
2018-12-05T17:28:53.009Z,10.55
2018-12-05T17:31:21.204Z,10.48
2018-12-05T17:33:49.521Z,11.75
2018-12-05T17:36:17.760Z,10.50
2018-12-05T17:38:45.897Z,10.95
2018-12-05T17:41:14.028Z,11.03
2018-12-05T17:43:42.117Z,10.48
2018-12-05T17:46:10.314Z,11.35
2018-12-05T17:48:38.498Z,11.30
2018-12-05T17:51:06.781Z,10.88
2018-12-05T17:53:34.968Z,10.75
2018-12-05T17:56:03.149Z,11.08
2018-12-05T17:58:31.340Z,11.48
2018-12-05T18:00:59.429Z,11.75
2018-12-05T18:03:27.617Z,11.80
2018-12-05T18:05:55.817Z,11.80
2018-12-05T18:08:23.993Z,11.90
2018-12-05T18:10:52.205Z,11.38
2018-12-05T18:13:20.580Z,11.35
2018-12-05T18:15:48.920Z,11.38
2018-12-05T18:18:17.064Z,10.88
2018-12-05T18:20:45.265Z,11.60
2018-12-05T18:23:13.452Z,11.45
2018-12-05T18:25:41.637Z,11.22
2018-12-05T18:28:09.832Z,12.50
2018-12-05T18:30:38.017Z,22.10
2018-12-05T18:33:06.189Z,14.20
2018-12-05T18:35:34.376Z,12.50
2018-12-05T18:38:02.565Z,11.80
2018-12-05T18:40:30.758Z,10.98
2018-12-05T18:42:59.013Z,11.48
2018-12-05T18:45:27.236Z,11.10
2018-12-05T18:47:55.412Z,11.22
2018-12-05T18:50:23.613Z,11.43
2018-12-05T18:52:51.788Z,11.35
2018-12-05T18:55:20.048Z,10.98
2018-12-05T18:57:48.173Z,12.10
2018-12-05T19:00:16.354Z,11.88
2018-12-05T19:02:44.640Z,13.30
2018-12-05T19:05:12.898Z,12.65
2018-12-05T19:07:41.103Z,12.65
2018-12-05T19:10:09.285Z,13.35
2018-12-05T19:12:37.456Z,12.40
2018-12-05T19:15:06.220Z,11.70
2018-12-05T19:17:34.349Z,12.40
2018-12-05T19:20:02.553Z,12.40
2018-12-05T19:22:30.725Z,12.37
2018-12-05T19:24:58.901Z,12.80
2018-12-05T19:27:27.101Z,12.68
2018-12-05T19:29:55.273Z,12.37
2018-12-05T19:32:23.370Z,12.65
2018-12-05T19:34:51.545Z,12.13
2018-12-05T19:37:19.756Z,12.55
2018-12-05T19:39:47.934Z,11.63
2018-12-05T19:42:16.117Z,12.07
2018-12-05T19:44:44.316Z,12.45
2018-12-05T19:47:12.493Z,12.60
2018-12-05T19:49:40.689Z,11.63
2018-12-05T19:52:08.867Z,11.38
2018-12-05T19:54:37.045Z,11.65
2018-12-05T19:57:05.233Z,12.35
2018-12-05T19:59:33.416Z,11.15
2018-12-05T20:02:01.578Z,11.85
2018-12-05T20:04:29.699Z,11.48
2018-12-05T20:06:57.881Z,12.33
2018-12-05T20:09:26.060Z,12.50
2018-12-05T20:11:54.252Z,11.95
2018-12-05T20:14:27.787Z,11.83
2018-12-05T20:16:55.960Z,11.43
2018-12-05T20:19:24.184Z,12.28
2018-12-05T20:21:52.332Z,12.40
2018-12-05T20:24:20.513Z,11.93
2018-12-05T20:26:48.711Z,11.75
2018-12-05T20:29:16.900Z,11.53
2018-12-05T20:31:45.097Z,11.63
2018-12-05T20:34:13.397Z,11.70
2018-12-05T20:36:41.581Z,11.53
2018-12-05T20:39:10.696Z,12.58
2018-12-05T20:41:38.973Z,11.45
2018-12-05T20:44:07.250Z,11.40
2018-12-05T20:46:35.444Z,11.68
2018-12-05T20:49:03.636Z,11.63
2018-12-05T20:51:31.833Z,12.18
2018-12-05T20:54:00.024Z,17.23
2018-12-05T20:56:28.199Z,25.60
2018-12-05T20:58:56.400Z,33.58
2018-12-05T21:01:25.084Z,23.07
2018-12-05T21:03:53.391Z,14.28
2018-12-05T21:06:21.561Z,13.83
2018-12-05T21:08:49.856Z,12.70
2018-12-05T21:11:18.028Z,12.60
2018-12-05T21:13:46.196Z,12.25
2018-12-05T21:16:14.385Z,13.50
2018-12-05T21:18:42.577Z,13.05
2018-12-05T21:21:10.752Z,15.18
2018-12-05T21:23:38.955Z,13.28
2018-12-05T21:26:07.132Z,11.78
2018-12-05T21:28:35.320Z,12.15
2018-12-05T21:31:03.520Z,11.68
2018-12-05T21:33:31.696Z,12.13
2018-12-05T21:35:59.888Z,12.73
2018-12-05T21:38:28.068Z,12.60
2018-12-05T21:40:56.250Z,14.38
2018-12-05T21:43:24.466Z,13.65
2018-12-05T21:45:52.733Z,14.83
2018-12-05T21:48:20.989Z,15.28
2018-12-05T21:50:49.104Z,14.65
2018-12-05T21:53:17.296Z,14.47
2018-12-05T21:55:45.476Z,12.88
2018-12-05T21:58:13.756Z,12.63
2018-12-05T22:00:41.953Z,11.75
2018-12-05T22:03:10.156Z,12.58
2018-12-05T22:05:38.320Z,12.23
2018-12-05T22:08:06.512Z,11.93
2018-12-05T22:10:34.728Z,11.53
2018-12-05T22:13:02.912Z,11.28
2018-12-05T22:15:31.101Z,11.22
2018-12-05T22:17:59.284Z,11.48
2018-12-05T22:20:27.561Z,12.35
2018-12-05T22:22:55.765Z,11.50
2018-12-05T22:25:23.964Z,11.65
2018-12-05T22:27:52.136Z,11.95
2018-12-05T22:30:20.332Z,10.98
2018-12-05T22:32:48.512Z,11.00
2018-12-05T22:35:16.704Z,11.55
2018-12-05T22:37:44.886Z,11.08
2018-12-05T22:40:13.186Z,11.53
2018-12-05T22:42:42.389Z,11.05
2018-12-05T22:45:10.585Z,10.72
2018-12-05T22:47:38.760Z,10.95
2018-12-05T22:50:07.935Z,10.78
2018-12-05T22:52:36.162Z,11.25
2018-12-05T22:55:04.580Z,11.73
2018-12-05T22:57:32.732Z,10.95
2018-12-05T23:00:00.930Z,11.65
2018-12-05T23:02:29.040Z,10.72
2018-12-05T23:04:57.205Z,10.00
2018-12-05T23:07:25.384Z,10.98
2018-12-05T23:09:53.572Z,11.15
2018-12-05T23:12:21.762Z,11.73
2018-12-05T23:14:50.049Z,10.95
2018-12-05T23:17:18.241Z,10.68
2018-12-05T23:19:46.417Z,11.20
2018-12-05T23:22:15.133Z,11.33
2018-12-05T23:24:43.308Z,10.72
2018-12-05T23:27:11.500Z,11.15
2018-12-05T23:29:39.682Z,11.18
2018-12-05T23:32:07.873Z,10.68
2018-12-05T23:34:36.048Z,10.63
2018-12-05T23:37:04.247Z,11.80
2018-12-05T23:39:32.524Z,10.88
2018-12-05T23:42:00.724Z,11.63
2018-12-05T23:44:28.900Z,11.53
2018-12-05T23:46:57.096Z,11.97
2018-12-05T23:49:25.272Z,11.12
2018-12-05T23:51:53.473Z,10.78
2018-12-05T23:54:21.648Z,11.25
2018-12-05T23:56:49.848Z,11.12
2018-12-05T23:59:18.038Z,11.15
